sensor_id;sensor_type;location;lat;lon;timestamp;P1;durP1;ratioP1;P2;durP2;ratioP2
66727;SDS011;53641;44.274;19.890;2023-12-29T00:02:19;29.88;;;13.32;;
66727;SDS011;53641;44.274;19.890;2023-12-29T00:04:45;25.05;;;12.98;;
66727;SDS011;53641;44.274;19.890;2023-12-29T00:07:12;22.92;;;10.85;;
66727;SDS011;53641;44.274;19.890;2023-12-29T00:09:38;26.60;;;10.82;;
66727;SDS011;53641;44.274;19.890;2023-12-29T00:12:06;21.10;;;10.68;;
66727;SDS011;53641;44.274;19.890;2023-12-29T00:14:32;24.48;;;10.25;;
66727;SDS011;53641;44.274;19.890;2023-12-29T00:16:59;28.98;;;12.25;;
66727;SDS011;53641;44.274;19.890;2023-12-29T00:19:26;31.92;;;12.05;;
66727;SDS011;53641;44.274;19.890;2023-12-29T00:21:52;27.70;;;11.07;;
66727;SDS011;53641;44.274;19.890;2023-12-29T00:24:18;33.72;;;11.85;;
66727;SDS011;53641;44.274;19.890;2023-12-29T00:26:44;24.95;;;12.40;;
66727;SDS011;53641;44.274;19.890;2023-12-29T00:29:13;26.05;;;11.45;;
66727;SDS011;53641;44.274;19.890;2023-12-29T00:31:40;30.88;;;14.25;;
66727;SDS011;53641;44.274;19.890;2023-12-29T00:34:07;36.50;;;15.68;;
66727;SDS011;53641;44.274;19.890;2023-12-29T00:36:33;31.42;;;13.88;;
66727;SDS011;53641;44.274;19.890;2023-12-29T00:38:59;23.58;;;11.40;;
66727;SDS011;53641;44.274;19.890;2023-12-29T00:41:25;27.13;;;11.88;;
66727;SDS011;53641;44.274;19.890;2023-12-29T00:43:51;23.58;;;11.30;;
66727;SDS011;53641;44.274;19.890;2023-12-29T00:46:17;27.02;;;11.80;;
66727;SDS011;53641;44.274;19.890;2023-12-29T00:48:43;25.45;;;11.38;;
66727;SDS011;53641;44.274;19.890;2023-12-29T00:51:10;24.95;;;11.80;;
66727;SDS011;53641;44.274;19.890;2023-12-29T00:53:36;27.85;;;11.93;;
66727;SDS011;53641;44.274;19.890;2023-12-29T00:56:02;23.08;;;11.57;;
66727;SDS011;53641;44.274;19.890;2023-12-29T00:58:28;30.30;;;12.35;;
66727;SDS011;53641;44.274;19.890;2023-12-29T01:00:55;28.42;;;11.52;;
66727;SDS011;53641;44.274;19.890;2023-12-29T01:03:21;25.45;;;13.00;;
66727;SDS011;53641;44.274;19.890;2023-12-29T01:05:47;23.52;;;11.80;;
66727;SDS011;53641;44.274;19.890;2023-12-29T01:08:13;31.88;;;12.43;;
66727;SDS011;53641;44.274;19.890;2023-12-29T01:10:39;35.58;;;12.52;;
66727;SDS011;53641;44.274;19.890;2023-12-29T01:13:06;29.48;;;12.55;;
66727;SDS011;53641;44.274;19.890;2023-12-29T01:15:32;27.20;;;12.52;;
66727;SDS011;53641;44.274;19.890;2023-12-29T01:17:58;30.55;;;12.55;;
66727;SDS011;53641;44.274;19.890;2023-12-29T01:20:24;31.88;;;14.10;;
66727;SDS011;53641;44.274;19.890;2023-12-29T01:22:50;32.33;;;13.20;;
66727;SDS011;53641;44.274;19.890;2023-12-29T01:25:16;28.88;;;14.90;;
66727;SDS011;53641;44.274;19.890;2023-12-29T01:27:42;38.05;;;14.32;;
66727;SDS011;53641;44.274;19.890;2023-12-29T01:30:09;37.20;;;14.68;;
66727;SDS011;53641;44.274;19.890;2023-12-29T01:32:35;34.25;;;14.68;;
66727;SDS011;53641;44.274;19.890;2023-12-29T01:35:02;37.65;;;14.25;;
66727;SDS011;53641;44.274;19.890;2023-12-29T01:37:28;31.25;;;12.98;;
66727;SDS011;53641;44.274;19.890;2023-12-29T01:39:55;30.45;;;14.57;;
66727;SDS011;53641;44.274;19.890;2023-12-29T01:42:21;28.77;;;13.02;;
66727;SDS011;53641;44.274;19.890;2023-12-29T01:44:47;24.85;;;11.63;;
66727;SDS011;53641;44.274;19.890;2023-12-29T01:47:19;26.20;;;12.32;;
66727;SDS011;53641;44.274;19.890;2023-12-29T01:49:46;29.05;;;13.13;;
66727;SDS011;53641;44.274;19.890;2023-12-29T01:52:12;31.33;;;14.05;;
66727;SDS011;53641;44.274;19.890;2023-12-29T01:54:39;31.80;;;13.30;;
66727;SDS011;53641;44.274;19.890;2023-12-29T01:57:07;29.08;;;13.82;;
66727;SDS011;53641;44.274;19.890;2023-12-29T01:59:34;24.75;;;11.98;;
66727;SDS011;53641;44.274;19.890;2023-12-29T02:02:01;28.90;;;12.05;;
66727;SDS011;53641;44.274;19.890;2023-12-29T02:04:27;29.05;;;12.57;;
66727;SDS011;53641;44.274;19.890;2023-12-29T02:06:54;27.75;;;10.90;;
66727;SDS011;53641;44.274;19.890;2023-12-29T02:09:21;28.80;;;12.07;;
66727;SDS011;53641;44.274;19.890;2023-12-29T02:11:47;22.10;;;10.70;;
66727;SDS011;53641;44.274;19.890;2023-12-29T02:14:17;20.08;;;9.60;;
66727;SDS011;53641;44.274;19.890;2023-12-29T02:17:00;25.85;;;10.82;;
66727;SDS011;53641;44.274;19.890;2023-12-29T02:19:36;25.20;;;10.32;;
66727;SDS011;53641;44.274;19.890;2023-12-29T02:22:03;21.77;;;10.60;;
66727;SDS011;53641;44.274;19.890;2023-12-29T02:24:29;19.38;;;9.77;;
66727;SDS011;53641;44.274;19.890;2023-12-29T02:26:57;17.48;;;9.13;;
66727;SDS011;53641;44.274;19.890;2023-12-29T02:29:28;17.80;;;9.57;;
66727;SDS011;53641;44.274;19.890;2023-12-29T02:31:56;18.23;;;8.45;;
66727;SDS011;53641;44.274;19.890;2023-12-29T02:34:24;19.33;;;9.15;;
66727;SDS011;53641;44.274;19.890;2023-12-29T02:36:51;19.02;;;8.98;;
66727;SDS011;53641;44.274;19.890;2023-12-29T02:39:17;23.00;;;9.48;;
66727;SDS011;53641;44.274;19.890;2023-12-29T02:41:43;19.02;;;8.57;;
66727;SDS011;53641;44.274;19.890;2023-12-29T02:44:09;20.08;;;9.23;;
66727;SDS011;53641;44.274;19.890;2023-12-29T02:46:36;17.42;;;8.90;;
66727;SDS011;53641;44.274;19.890;2023-12-29T02:49:02;21.17;;;9.50;;
66727;SDS011;53641;44.274;19.890;2023-12-29T02:51:28;20.00;;;8.98;;
66727;SDS011;53641;44.274;19.890;2023-12-29T02:53:54;19.70;;;9.93;;
66727;SDS011;53641;44.274;19.890;2023-12-29T02:56:20;21.13;;;9.35;;
66727;SDS011;53641;44.274;19.890;2023-12-29T02:58:47;20.90;;;9.15;;
66727;SDS011;53641;44.274;19.890;2023-12-29T03:01:13;19.23;;;8.48;;
66727;SDS011;53641;44.274;19.890;2023-12-29T03:03:39;17.73;;;8.20;;
66727;SDS011;53641;44.274;19.890;2023-12-29T03:06:06;17.05;;;8.85;;
66727;SDS011;53641;44.274;19.890;2023-12-29T03:08:32;21.05;;;8.70;;
66727;SDS011;53641;44.274;19.890;2023-12-29T03:10:58;16.13;;;7.90;;
66727;SDS011;53641;44.274;19.890;2023-12-29T03:13:24;21.30;;;8.73;;
66727;SDS011;53641;44.274;19.890;2023-12-29T03:15:50;15.60;;;7.47;;
66727;SDS011;53641;44.274;19.890;2023-12-29T03:18:16;18.58;;;7.38;;
66727;SDS011;53641;44.274;19.890;2023-12-29T03:20:42;18.35;;;8.18;;
66727;SDS011;53641;44.274;19.890;2023-12-29T03:23:09;18.92;;;7.55;;
66727;SDS011;53641;44.274;19.890;2023-12-29T03:25:35;16.92;;;7.60;;
66727;SDS011;53641;44.274;19.890;2023-12-29T03:28:01;18.45;;;7.65;;
66727;SDS011;53641;44.274;19.890;2023-12-29T03:30:27;18.75;;;7.93;;
66727;SDS011;53641;44.274;19.890;2023-12-29T03:32:53;18.13;;;8.50;;
66727;SDS011;53641;44.274;19.890;2023-12-29T03:35:19;19.60;;;7.82;;
66727;SDS011;53641;44.274;19.890;2023-12-29T03:37:45;21.15;;;8.32;;
66727;SDS011;53641;44.274;19.890;2023-12-29T03:40:11;21.30;;;8.90;;
66727;SDS011;53641;44.274;19.890;2023-12-29T03:42:38;16.95;;;7.30;;
66727;SDS011;53641;44.274;19.890;2023-12-29T03:45:05;15.35;;;7.72;;
66727;SDS011;53641;44.274;19.890;2023-12-29T03:47:31;16.70;;;8.32;;
66727;SDS011;53641;44.274;19.890;2023-12-29T03:49:57;17.33;;;8.00;;
66727;SDS011;53641;44.274;19.890;2023-12-29T03:52:23;18.35;;;8.25;;
66727;SDS011;53641;44.274;19.890;2023-12-29T03:54:49;19.38;;;7.38;;
66727;SDS011;53641;44.274;19.890;2023-12-29T03:57:15;18.27;;;7.70;;
66727;SDS011;53641;44.274;19.890;2023-12-29T03:59:42;17.20;;;8.13;;
66727;SDS011;53641;44.274;19.890;2023-12-29T04:02:08;13.80;;;7.43;;
66727;SDS011;53641;44.274;19.890;2023-12-29T04:04:37;14.23;;;6.47;;
66727;SDS011;53641;44.274;19.890;2023-12-29T04:07:03;12.45;;;6.47;;
66727;SDS011;53641;44.274;19.890;2023-12-29T04:09:30;15.40;;;6.25;;
66727;SDS011;53641;44.274;19.890;2023-12-29T04:11:56;15.25;;;7.07;;
66727;SDS011;53641;44.274;19.890;2023-12-29T04:14:25;14.23;;;5.93;;
66727;SDS011;53641;44.274;19.890;2023-12-29T04:16:51;15.10;;;6.68;;
66727;SDS011;53641;44.274;19.890;2023-12-29T04:19:17;12.45;;;6.28;;
66727;SDS011;53641;44.274;19.890;2023-12-29T04:21:44;15.25;;;6.75;;
66727;SDS011;53641;44.274;19.890;2023-12-29T04:24:10;12.77;;;5.63;;
66727;SDS011;53641;44.274;19.890;2023-12-29T04:26:36;16.45;;;6.70;;
66727;SDS011;53641;44.274;19.890;2023-12-29T04:29:02;13.57;;;6.18;;
66727;SDS011;53641;44.274;19.890;2023-12-29T04:31:28;16.58;;;7.53;;
66727;SDS011;53641;44.274;19.890;2023-12-29T04:33:55;14.77;;;6.43;;
66727;SDS011;53641;44.274;19.890;2023-12-29T04:36:21;23.33;;;9.40;;
66727;SDS011;53641;44.274;19.890;2023-12-29T04:38:47;19.27;;;8.55;;
66727;SDS011;53641;44.274;19.890;2023-12-29T04:41:13;19.70;;;8.10;;
66727;SDS011;53641;44.274;19.890;2023-12-29T04:43:39;18.60;;;7.55;;
66727;SDS011;53641;44.274;19.890;2023-12-29T04:46:05;16.77;;;7.03;;
66727;SDS011;53641;44.274;19.890;2023-12-29T04:48:32;13.05;;;6.22;;
66727;SDS011;53641;44.274;19.890;2023-12-29T04:50:58;16.88;;;7.20;;
66727;SDS011;53641;44.274;19.890;2023-12-29T04:53:24;15.68;;;6.78;;
66727;SDS011;53641;44.274;19.890;2023-12-29T04:55:50;17.95;;;7.68;;
66727;SDS011;53641;44.274;19.890;2023-12-29T04:58:16;16.73;;;7.50;;
66727;SDS011;53641;44.274;19.890;2023-12-29T05:00:45;14.18;;;6.93;;
66727;SDS011;53641;44.274;19.890;2023-12-29T05:03:11;16.38;;;6.93;;
66727;SDS011;53641;44.274;19.890;2023-12-29T05:05:37;16.23;;;7.95;;
66727;SDS011;53641;44.274;19.890;2023-12-29T05:08:04;17.05;;;7.50;;
66727;SDS011;53641;44.274;19.890;2023-12-29T05:10:30;16.50;;;8.00;;
66727;SDS011;53641;44.274;19.890;2023-12-29T05:12:56;16.25;;;8.40;;
66727;SDS011;53641;44.274;19.890;2023-12-29T05:15:22;17.33;;;7.75;;
66727;SDS011;53641;44.274;19.890;2023-12-29T05:17:50;14.95;;;7.40;;
66727;SDS011;53641;44.274;19.890;2023-12-29T05:20:17;15.02;;;7.15;;
66727;SDS011;53641;44.274;19.890;2023-12-29T05:22:43;19.80;;;7.85;;
66727;SDS011;53641;44.274;19.890;2023-12-29T05:25:09;15.20;;;7.32;;
66727;SDS011;53641;44.274;19.890;2023-12-29T05:27:35;23.63;;;8.25;;
66727;SDS011;53641;44.274;19.890;2023-12-29T05:30:05;15.50;;;7.82;;
66727;SDS011;53641;44.274;19.890;2023-12-29T05:32:31;19.63;;;8.90;;
66727;SDS011;53641;44.274;19.890;2023-12-29T05:34:57;18.95;;;8.45;;
66727;SDS011;53641;44.274;19.890;2023-12-29T05:37:24;16.20;;;7.80;;
66727;SDS011;53641;44.274;19.890;2023-12-29T05:39:50;16.70;;;8.15;;
66727;SDS011;53641;44.274;19.890;2023-12-29T05:42:16;17.42;;;8.25;;
66727;SDS011;53641;44.274;19.890;2023-12-29T05:44:42;18.23;;;7.78;;
66727;SDS011;53641;44.274;19.890;2023-12-29T05:47:09;18.15;;;7.38;;
66727;SDS011;53641;44.274;19.890;2023-12-29T05:49:35;15.85;;;7.05;;
66727;SDS011;53641;44.274;19.890;2023-12-29T05:52:05;15.48;;;7.13;;
66727;SDS011;53641;44.274;19.890;2023-12-29T05:54:31;17.52;;;7.10;;
66727;SDS011;53641;44.274;19.890;2023-12-29T05:56:58;15.23;;;7.30;;
66727;SDS011;53641;44.274;19.890;2023-12-29T05:59:24;17.40;;;7.28;;
66727;SDS011;53641;44.274;19.890;2023-12-29T06:01:50;18.27;;;7.85;;
66727;SDS011;53641;44.274;19.890;2023-12-29T06:04:16;15.43;;;7.53;;
66727;SDS011;53641;44.274;19.890;2023-12-29T06:06:42;20.67;;;9.65;;
66727;SDS011;53641;44.274;19.890;2023-12-29T06:09:09;20.92;;;10.45;;
66727;SDS011;53641;44.274;19.890;2023-12-29T06:11:35;21.10;;;9.52;;
66727;SDS011;53641;44.274;19.890;2023-12-29T06:14:01;28.33;;;10.48;;
66727;SDS011;53641;44.274;19.890;2023-12-29T06:16:28;21.98;;;9.90;;
66727;SDS011;53641;44.274;19.890;2023-12-29T06:18:56;25.60;;;10.23;;
66727;SDS011;53641;44.274;19.890;2023-12-29T06:21:22;30.27;;;11.20;;
66727;SDS011;53641;44.274;19.890;2023-12-29T06:23:48;29.50;;;12.45;;
66727;SDS011;53641;44.274;19.890;2023-12-29T06:26:15;31.63;;;12.32;;
66727;SDS011;53641;44.274;19.890;2023-12-29T06:28:41;29.50;;;11.82;;
66727;SDS011;53641;44.274;19.890;2023-12-29T06:31:08;34.65;;;13.70;;
66727;SDS011;53641;44.274;19.890;2023-12-29T06:33:34;30.60;;;13.02;;
66727;SDS011;53641;44.274;19.890;2023-12-29T06:36:00;30.35;;;13.85;;
66727;SDS011;53641;44.274;19.890;2023-12-29T06:38:28;26.20;;;12.63;;
66727;SDS011;53641;44.274;19.890;2023-12-29T06:40:57;29.60;;;14.75;;
66727;SDS011;53641;44.274;19.890;2023-12-29T06:43:23;35.33;;;14.80;;
66727;SDS011;53641;44.274;19.890;2023-12-29T06:45:50;34.10;;;15.13;;
66727;SDS011;53641;44.274;19.890;2023-12-29T06:48:16;37.13;;;15.68;;
66727;SDS011;53641;44.274;19.890;2023-12-29T06:50:42;39.40;;;18.10;;
66727;SDS011;53641;44.274;19.890;2023-12-29T06:53:10;51.38;;;18.77;;
66727;SDS011;53641;44.274;19.890;2023-12-29T06:55:37;50.05;;;20.17;;
66727;SDS011;53641;44.274;19.890;2023-12-29T06:58:04;42.30;;;17.25;;
66727;SDS011;53641;44.274;19.890;2023-12-29T07:00:30;42.08;;;18.42;;
66727;SDS011;53641;44.274;19.890;2023-12-29T07:02:56;38.55;;;16.60;;
66727;SDS011;53641;44.274;19.890;2023-12-29T07:05:22;38.78;;;15.75;;
66727;SDS011;53641;44.274;19.890;2023-12-29T07:07:48;30.35;;;13.38;;
66727;SDS011;53641;44.274;19.890;2023-12-29T07:10:14;33.17;;;12.88;;
66727;SDS011;53641;44.274;19.890;2023-12-29T07:12:41;24.65;;;12.25;;
66727;SDS011;53641;44.274;19.890;2023-12-29T07:15:07;27.75;;;12.35;;
66727;SDS011;53641;44.274;19.890;2023-12-29T07:17:33;29.95;;;13.10;;
66727;SDS011;53641;44.274;19.890;2023-12-29T07:19:59;36.10;;;13.43;;
66727;SDS011;53641;44.274;19.890;2023-12-29T07:22:29;36.90;;;15.70;;
66727;SDS011;53641;44.274;19.890;2023-12-29T07:24:56;54.35;;;19.20;;
66727;SDS011;53641;44.274;19.890;2023-12-29T07:27:22;47.33;;;19.55;;
66727;SDS011;53641;44.274;19.890;2023-12-29T07:29:50;57.65;;;24.88;;
66727;SDS011;53641;44.274;19.890;2023-12-29T07:32:19;58.67;;;24.50;;
66727;SDS011;53641;44.274;19.890;2023-12-29T07:34:46;64.63;;;26.42;;
66727;SDS011;53641;44.274;19.890;2023-12-29T07:37:14;57.25;;;24.58;;
66727;SDS011;53641;44.274;19.890;2023-12-29T07:39:41;52.40;;;22.10;;
66727;SDS011;53641;44.274;19.890;2023-12-29T07:42:08;38.15;;;18.48;;
66727;SDS011;53641;44.274;19.890;2023-12-29T07:44:35;32.33;;;15.98;;
66727;SDS011;53641;44.274;19.890;2023-12-29T07:47:01;39.15;;;14.88;;
66727;SDS011;53641;44.274;19.890;2023-12-29T07:49:28;24.65;;;12.07;;
66727;SDS011;53641;44.274;19.890;2023-12-29T07:51:55;23.52;;;13.18;;
66727;SDS011;53641;44.274;19.890;2023-12-29T07:54:24;25.75;;;12.00;;
66727;SDS011;53641;44.274;19.890;2023-12-29T07:56:50;18.67;;;9.98;;
66727;SDS011;53641;44.274;19.890;2023-12-29T07:59:16;21.70;;;11.23;;
66727;SDS011;53641;44.274;19.890;2023-12-29T08:01:42;24.25;;;10.60;;
66727;SDS011;53641;44.274;19.890;2023-12-29T08:04:08;19.98;;;10.25;;
66727;SDS011;53641;44.274;19.890;2023-12-29T08:06:37;20.20;;;12.23;;
66727;SDS011;53641;44.274;19.890;2023-12-29T08:09:03;22.48;;;11.52;;
66727;SDS011;53641;44.274;19.890;2023-12-29T08:11:30;32.20;;;14.32;;
66727;SDS011;53641;44.274;19.890;2023-12-29T08:13:57;30.77;;;13.70;;
66727;SDS011;53641;44.274;19.890;2023-12-29T08:16:23;29.15;;;15.30;;
66727;SDS011;53641;44.274;19.890;2023-12-29T08:18:49;36.00;;;16.98;;
66727;SDS011;53641;44.274;19.890;2023-12-29T08:21:16;43.20;;;19.55;;
66727;SDS011;53641;44.274;19.890;2023-12-29T08:23:43;43.63;;;19.90;;
66727;SDS011;53641;44.274;19.890;2023-12-29T08:26:09;46.58;;;21.90;;
66727;SDS011;53641;44.274;19.890;2023-12-29T08:28:36;48.10;;;21.08;;
66727;SDS011;53641;44.274;19.890;2023-12-29T08:31:09;48.73;;;20.90;;
66727;SDS011;53641;44.274;19.890;2023-12-29T08:33:35;38.75;;;18.85;;
66727;SDS011;53641;44.274;19.890;2023-12-29T08:36:04;44.15;;;20.50;;
66727;SDS011;53641;44.274;19.890;2023-12-29T08:38:31;39.30;;;20.13;;
66727;SDS011;53641;44.274;19.890;2023-12-29T08:41:00;39.00;;;18.75;;
66727;SDS011;53641;44.274;19.890;2023-12-29T08:43:26;31.42;;;16.73;;
66727;SDS011;53641;44.274;19.890;2023-12-29T08:45:56;34.97;;;15.48;;
66727;SDS011;53641;44.274;19.890;2023-12-29T08:48:22;29.63;;;14.18;;
66727;SDS011;53641;44.274;19.890;2023-12-29T08:50:50;27.55;;;13.98;;
66727;SDS011;53641;44.274;19.890;2023-12-29T08:53:16;23.05;;;12.85;;
66727;SDS011;53641;44.274;19.890;2023-12-29T08:55:52;34.20;;;15.43;;
66727;SDS011;53641;44.274;19.890;2023-12-29T08:58:21;29.73;;;14.88;;
66727;SDS011;53641;44.274;19.890;2023-12-29T09:00:47;29.15;;;13.68;;
66727;SDS011;53641;44.274;19.890;2023-12-29T09:03:13;38.15;;;17.90;;
66727;SDS011;53641;44.274;19.890;2023-12-29T09:05:39;34.38;;;16.30;;
66727;SDS011;53641;44.274;19.890;2023-12-29T09:08:06;33.58;;;17.42;;
66727;SDS011;53641;44.274;19.890;2023-12-29T09:10:32;34.05;;;17.13;;
66727;SDS011;53641;44.274;19.890;2023-12-29T09:12:58;41.72;;;18.52;;
66727;SDS011;53641;44.274;19.890;2023-12-29T09:15:25;39.30;;;19.55;;
66727;SDS011;53641;44.274;19.890;2023-12-29T09:17:51;39.90;;;20.25;;
66727;SDS011;53641;44.274;19.890;2023-12-29T09:20:20;37.53;;;17.85;;
66727;SDS011;53641;44.274;19.890;2023-12-29T09:22:46;39.65;;;18.73;;
66727;SDS011;53641;44.274;19.890;2023-12-29T09:25:12;42.47;;;18.33;;
66727;SDS011;53641;44.274;19.890;2023-12-29T09:27:47;43.90;;;19.80;;
66727;SDS011;53641;44.274;19.890;2023-12-29T09:30:14;39.65;;;19.27;;
66727;SDS011;53641;44.274;19.890;2023-12-29T09:32:41;39.10;;;18.92;;
66727;SDS011;53641;44.274;19.890;2023-12-29T09:35:07;39.60;;;18.48;;
66727;SDS011;53641;44.274;19.890;2023-12-29T09:37:37;39.95;;;20.63;;
66727;SDS011;53641;44.274;19.890;2023-12-29T09:40:03;44.55;;;22.02;;
66727;SDS011;53641;44.274;19.890;2023-12-29T09:42:30;40.75;;;19.35;;
66727;SDS011;53641;44.274;19.890;2023-12-29T09:44:57;37.40;;;17.45;;
66727;SDS011;53641;44.274;19.890;2023-12-29T09:47:24;36.75;;;17.73;;
66727;SDS011;53641;44.274;19.890;2023-12-29T09:49:51;30.85;;;14.75;;
66727;SDS011;53641;44.274;19.890;2023-12-29T09:52:22;31.83;;;15.32;;
66727;SDS011;53641;44.274;19.890;2023-12-29T09:54:48;33.92;;;16.35;;
66727;SDS011;53641;44.274;19.890;2023-12-29T09:57:16;29.23;;;15.93;;
66727;SDS011;53641;44.274;19.890;2023-12-29T09:59:43;34.20;;;15.13;;
66727;SDS011;53641;44.274;19.890;2023-12-29T10:02:12;31.95;;;16.65;;
66727;SDS011;53641;44.274;19.890;2023-12-29T10:04:38;26.38;;;13.77;;
66727;SDS011;53641;44.274;19.890;2023-12-29T10:07:04;24.80;;;11.95;;
66727;SDS011;53641;44.274;19.890;2023-12-29T10:09:33;21.90;;;12.07;;
66727;SDS011;53641;44.274;19.890;2023-12-29T10:12:01;22.67;;;11.70;;
66727;SDS011;53641;44.274;19.890;2023-12-29T10:14:34;22.67;;;9.40;;
66727;SDS011;53641;44.274;19.890;2023-12-29T10:17:59;13.00;;;7.35;;
66727;SDS011;53641;44.274;19.890;2023-12-29T10:19:50;16.65;;;8.10;;
66727;SDS011;53641;44.274;19.890;2023-12-29T10:22:26;14.98;;;7.28;;
66727;SDS011;53641;44.274;19.890;2023-12-29T10:24:58;12.05;;;5.55;;
66727;SDS011;53641;44.274;19.890;2023-12-29T10:27:25;10.35;;;5.38;;
66727;SDS011;53641;44.274;19.890;2023-12-29T10:29:56;12.50;;;6.47;;
66727;SDS011;53641;44.274;19.890;2023-12-29T10:32:23;16.80;;;7.93;;
66727;SDS011;53641;44.274;19.890;2023-12-29T10:34:49;18.13;;;8.35;;
66727;SDS011;53641;44.274;19.890;2023-12-29T10:37:18;20.60;;;9.65;;
66727;SDS011;53641;44.274;19.890;2023-12-29T10:39:57;17.98;;;9.63;;
66727;SDS011;53641;44.274;19.890;2023-12-29T10:42:23;22.95;;;10.32;;
66727;SDS011;53641;44.274;19.890;2023-12-29T10:45:06;25.50;;;10.75;;
66727;SDS011;53641;44.274;19.890;2023-12-29T10:47:32;27.60;;;11.27;;
66727;SDS011;53641;44.274;19.890;2023-12-29T10:50:01;23.73;;;10.48;;
66727;SDS011;53641;44.274;19.890;2023-12-29T10:52:28;24.08;;;9.50;;
66727;SDS011;53641;44.274;19.890;2023-12-29T10:55:05;15.88;;;7.50;;
66727;SDS011;53641;44.274;19.890;2023-12-29T10:57:31;15.63;;;6.82;;
66727;SDS011;53641;44.274;19.890;2023-12-29T10:59:57;12.43;;;5.82;;
66727;SDS011;53641;44.274;19.890;2023-12-29T11:02:27;8.73;;;4.65;;
66727;SDS011;53641;44.274;19.890;2023-12-29T11:05:04;14.27;;;4.57;;
66727;SDS011;53641;44.274;19.890;2023-12-29T11:07:34;31.08;;;13.23;;
66727;SDS011;53641;44.274;19.890;2023-12-29T11:10:01;36.58;;;15.70;;
66727;SDS011;53641;44.274;19.890;2023-12-29T11:12:29;30.75;;;15.27;;
66727;SDS011;53641;44.274;19.890;2023-12-29T11:14:55;31.80;;;15.00;;
66727;SDS011;53641;44.274;19.890;2023-12-29T11:17:21;25.92;;;11.75;;
66727;SDS011;53641;44.274;19.890;2023-12-29T11:19:48;20.88;;;9.25;;
66727;SDS011;53641;44.274;19.890;2023-12-29T11:22:16;10.93;;;6.30;;
66727;SDS011;53641;44.274;19.890;2023-12-29T11:24:45;22.80;;;10.77;;
66727;SDS011;53641;44.274;19.890;2023-12-29T11:27:12;27.15;;;15.15;;
66727;SDS011;53641;44.274;19.890;2023-12-29T11:29:38;26.40;;;13.10;;
66727;SDS011;53641;44.274;19.890;2023-12-29T11:32:06;22.77;;;10.43;;
66727;SDS011;53641;44.274;19.890;2023-12-29T11:34:38;21.75;;;10.45;;
66727;SDS011;53641;44.274;19.890;2023-12-29T11:37:18;22.42;;;11.70;;
66727;SDS011;53641;44.274;19.890;2023-12-29T11:39:52;28.15;;;11.73;;
66727;SDS011;53641;44.274;19.890;2023-12-29T11:42:27;25.33;;;11.65;;
66727;SDS011;53641;44.274;19.890;2023-12-29T11:44:56;16.92;;;8.23;;
66727;SDS011;53641;44.274;19.890;2023-12-29T11:47:35;20.77;;;9.82;;
66727;SDS011;53641;44.274;19.890;2023-12-29T11:50:02;19.05;;;9.05;;
66727;SDS011;53641;44.274;19.890;2023-12-29T11:52:35;16.65;;;7.65;;
66727;SDS011;53641;44.274;19.890;2023-12-29T11:55:11;23.35;;;9.57;;
66727;SDS011;53641;44.274;19.890;2023-12-29T11:57:40;22.23;;;9.25;;
66727;SDS011;53641;44.274;19.890;2023-12-29T12:00:07;12.93;;;5.75;;
66727;SDS011;53641;44.274;19.890;2023-12-29T12:02:33;8.55;;;2.80;;
66727;SDS011;53641;44.274;19.890;2023-12-29T12:05:02;5.20;;;1.75;;
66727;SDS011;53641;44.274;19.890;2023-12-29T12:10:29;8.63;;;2.33;;
66727;SDS011;53641;44.274;19.890;2023-12-29T12:12:56;6.07;;;2.40;;
66727;SDS011;53641;44.274;19.890;2023-12-29T12:15:31;4.47;;;2.05;;
66727;SDS011;53641;44.274;19.890;2023-12-29T12:18:10;4.28;;;2.08;;
66727;SDS011;53641;44.274;19.890;2023-12-29T12:20:37;5.25;;;2.25;;
66727;SDS011;53641;44.274;19.890;2023-12-29T12:23:06;8.52;;;2.05;;
66727;SDS011;53641;44.274;19.890;2023-12-29T12:25:37;5.38;;;2.28;;
66727;SDS011;53641;44.274;19.890;2023-12-29T12:28:07;9.02;;;3.40;;
66727;SDS011;53641;44.274;19.890;2023-12-29T12:30:33;5.97;;;1.85;;
66727;SDS011;53641;44.274;19.890;2023-12-29T12:33:00;7.95;;;2.25;;
66727;SDS011;53641;44.274;19.890;2023-12-29T12:35:28;10.15;;;2.85;;
66727;SDS011;53641;44.274;19.890;2023-12-29T12:38:10;5.82;;;1.98;;
66727;SDS011;53641;44.274;19.890;2023-12-29T12:40:40;6.28;;;2.72;;
66727;SDS011;53641;44.274;19.890;2023-12-29T12:43:06;8.20;;;2.03;;
66727;SDS011;53641;44.274;19.890;2023-12-29T12:45:33;6.25;;;1.80;;
66727;SDS011;53641;44.274;19.890;2023-12-29T12:48:13;4.03;;;1.40;;
66727;SDS011;53641;44.274;19.890;2023-12-29T12:50:44;4.75;;;1.13;;
66727;SDS011;53641;44.274;19.890;2023-12-29T12:53:11;8.02;;;1.90;;
66727;SDS011;53641;44.274;19.890;2023-12-29T12:55:47;7.40;;;2.38;;
66727;SDS011;53641;44.274;19.890;2023-12-29T12:58:15;3.95;;;1.98;;
66727;SDS011;53641;44.274;19.890;2023-12-29T13:00:41;3.08;;;1.73;;
66727;SDS011;53641;44.274;19.890;2023-12-29T13:03:11;4.47;;;1.67;;
66727;SDS011;53641;44.274;19.890;2023-12-29T13:05:37;5.65;;;1.80;;
66727;SDS011;53641;44.274;19.890;2023-12-29T13:08:03;2.95;;;1.23;;
66727;SDS011;53641;44.274;19.890;2023-12-29T13:10:30;3.92;;;1.20;;
66727;SDS011;53641;44.274;19.890;2023-12-29T13:12:57;2.78;;;1.48;;
66727;SDS011;53641;44.274;19.890;2023-12-29T13:15:23;5.88;;;1.75;;
66727;SDS011;53641;44.274;19.890;2023-12-29T13:17:50;4.40;;;2.00;;
66727;SDS011;53641;44.274;19.890;2023-12-29T13:20:18;8.20;;;1.88;;
66727;SDS011;53641;44.274;19.890;2023-12-29T13:22:46;6.78;;;1.65;;
66727;SDS011;53641;44.274;19.890;2023-12-29T13:25:15;3.83;;;1.67;;
66727;SDS011;53641;44.274;19.890;2023-12-29T13:27:44;3.95;;;1.73;;
66727;SDS011;53641;44.274;19.890;2023-12-29T13:30:11;4.13;;;1.45;;
66727;SDS011;53641;44.274;19.890;2023-12-29T13:32:39;5.63;;;1.63;;
66727;SDS011;53641;44.274;19.890;2023-12-29T13:35:09;6.57;;;1.38;;
66727;SDS011;53641;44.274;19.890;2023-12-29T13:37:46;3.55;;;1.35;;
66727;SDS011;53641;44.274;19.890;2023-12-29T13:40:27;6.28;;;2.03;;
66727;SDS011;53641;44.274;19.890;2023-12-29T13:42:59;4.57;;;2.08;;
66727;SDS011;53641;44.274;19.890;2023-12-29T13:45:28;4.93;;;1.70;;
66727;SDS011;53641;44.274;19.890;2023-12-29T13:47:58;7.60;;;3.55;;
66727;SDS011;53641;44.274;19.890;2023-12-29T13:50:25;5.80;;;2.47;;
66727;SDS011;53641;44.274;19.890;2023-12-29T13:52:54;8.60;;;2.38;;
66727;SDS011;53641;44.274;19.890;2023-12-29T13:55:21;8.82;;;3.85;;
66727;SDS011;53641;44.274;19.890;2023-12-29T13:57:47;13.18;;;5.05;;
66727;SDS011;53641;44.274;19.890;2023-12-29T14:00:15;11.35;;;5.70;;
66727;SDS011;53641;44.274;19.890;2023-12-29T14:02:44;11.35;;;4.57;;
66727;SDS011;53641;44.274;19.890;2023-12-29T14:05:18;12.48;;;5.13;;
66727;SDS011;53641;44.274;19.890;2023-12-29T14:07:52;15.93;;;7.15;;
66727;SDS011;53641;44.274;19.890;2023-12-29T14:10:18;18.60;;;6.13;;
66727;SDS011;53641;44.274;19.890;2023-12-29T14:12:45;12.32;;;5.32;;
66727;SDS011;53641;44.274;19.890;2023-12-29T14:15:11;15.93;;;6.43;;
66727;SDS011;53641;44.274;19.890;2023-12-29T14:17:38;19.75;;;8.02;;
66727;SDS011;53641;44.274;19.890;2023-12-29T14:20:07;21.90;;;8.13;;
66727;SDS011;53641;44.274;19.890;2023-12-29T14:22:34;26.45;;;9.65;;